createdAt,value
2018-11-20T00:02:35.493Z,8.83
2018-11-20T00:05:58.799Z,8.37
2018-11-20T00:08:53.296Z,9.30
2018-11-20T00:11:53.394Z,9.30
2018-11-20T00:14:47.748Z,9.63
2018-11-20T00:17:38.566Z,10.57
2018-11-20T00:20:26.486Z,9.78
2018-11-20T00:23:13.575Z,9.83
2018-11-20T00:26:00.601Z,9.93
2018-11-20T00:28:47.370Z,9.50
2018-11-20T00:31:35.426Z,9.53
2018-11-20T00:34:12.905Z,10.03
2018-11-20T00:37:00.473Z,10.77
2018-11-20T00:40:00.627Z,10.10
2018-11-20T00:42:59.789Z,8.50
2018-11-20T00:45:47.816Z,11.25
2018-11-20T00:48:32.773Z,11.67
2018-11-20T00:51:19.673Z,9.83
2018-11-20T00:54:00.168Z,8.97
2018-11-20T00:56:51.589Z,11.77
2018-11-20T00:59:31.961Z,10.60
2018-11-20T01:02:23.224Z,9.13
2018-11-20T01:05:11.229Z,11.83
2018-11-20T01:07:59.576Z,10.10
2018-11-20T01:10:41.030Z,11.13
2018-11-20T01:13:19.381Z,10.07
2018-11-20T01:16:06.911Z,9.88
2018-11-20T01:18:45.626Z,11.03
2018-11-20T01:21:53.223Z,12.33
2018-11-20T01:24:39.794Z,11.80
2018-11-20T01:27:27.787Z,12.03
2018-11-20T01:30:16.855Z,13.47
2018-11-20T01:33:12.943Z,13.17
2018-11-20T01:35:56.029Z,12.43
2018-11-20T01:38:44.514Z,12.35
2018-11-20T01:41:31.723Z,13.67
2018-11-20T01:44:34.799Z,12.57
2018-11-20T01:47:25.825Z,13.13
2018-11-20T01:52:50.470Z,12.90
2018-11-20T01:55:28.740Z,12.40
2018-11-20T01:58:19.591Z,7.87
2018-11-20T02:01:07.011Z,14.20
2018-11-20T02:04:04.953Z,13.53
2018-11-20T02:06:52.760Z,12.47
2018-11-20T02:09:50.004Z,13.80
2018-11-20T02:12:40.916Z,13.57
2018-11-20T02:15:29.010Z,10.30
2018-11-20T02:18:34.057Z,12.90
2018-11-20T02:21:34.211Z,12.90
2018-11-20T02:24:13.262Z,12.27
2018-11-20T02:27:04.820Z,13.63
2018-11-20T02:29:54.877Z,11.20
2018-11-20T02:32:39.408Z,12.90
2018-11-20T02:35:22.964Z,14.53
2018-11-20T02:38:14.211Z,13.53
2018-11-20T02:41:02.500Z,12.57
2018-11-20T02:43:48.679Z,12.13
2018-11-20T02:46:42.687Z,14.13
2018-11-20T02:49:42.905Z,12.07
2018-11-20T02:52:37.148Z,11.23
2018-11-20T02:55:17.948Z,11.23
2018-11-20T02:58:12.056Z,10.50
2018-11-20T03:00:59.201Z,12.53
2018-11-20T03:03:45.820Z,12.57
2018-11-20T03:06:27.272Z,12.63
2018-11-20T03:09:18.315Z,13.03
2018-11-20T03:12:06.367Z,14.28
2018-11-20T03:14:56.444Z,12.53
2018-11-20T03:17:44.049Z,12.43
2018-11-20T03:20:29.939Z,11.00
2018-11-20T03:23:30.306Z,12.50
2018-11-20T03:26:24.939Z,11.25
2018-11-20T03:29:18.875Z,12.07
2018-11-20T03:32:14.650Z,12.35
2018-11-20T03:35:01.154Z,11.43
2018-11-20T03:37:49.339Z,12.40
2018-11-20T03:40:47.577Z,13.63
2018-11-20T03:43:35.813Z,13.60
2018-11-20T03:46:23.342Z,12.63
2018-11-20T03:49:10.341Z,12.27
2018-11-20T03:51:49.176Z,14.37
2018-11-20T03:54:36.291Z,9.43
2018-11-20T03:57:23.352Z,11.70
2018-11-20T04:00:20.008Z,14.27
2018-11-20T04:03:06.756Z,11.80
2018-11-20T04:06:09.921Z,9.87
2018-11-20T04:09:03.513Z,10.07
2018-11-20T04:11:50.149Z,13.15
2018-11-20T04:14:36.886Z,13.73
2018-11-20T04:17:12.820Z,13.57
2018-11-20T04:19:51.161Z,9.43
2018-11-20T04:22:51.102Z,12.87
2018-11-20T04:25:47.979Z,14.33
2018-11-20T04:28:39.644Z,11.33
2018-11-20T04:31:59.800Z,12.50
2018-11-20T04:34:56.807Z,10.63
2018-11-20T04:37:43.486Z,11.43
2018-11-20T04:40:30.270Z,12.03
2018-11-20T04:43:23.632Z,10.80
2018-11-20T04:46:03.684Z,12.53
2018-11-20T04:48:54.552Z,11.80
2018-11-20T04:51:51.661Z,12.83
2018-11-20T04:54:47.974Z,9.27
2018-11-20T04:57:41.875Z,12.60
2018-11-20T05:00:29.775Z,10.90
2018-11-20T05:03:30.024Z,13.20
2018-11-20T05:09:09.064Z,11.60
2018-11-20T05:11:46.057Z,12.60
2018-11-20T05:14:45.801Z,11.17
2018-11-20T05:17:26.738Z,12.43
2018-11-20T05:20:23.603Z,12.97
2018-11-20T05:23:10.318Z,11.33
2018-11-20T05:26:06.318Z,11.78
2018-11-20T05:28:53.436Z,11.03
2018-11-20T05:31:39.616Z,12.90
2018-11-20T05:34:39.867Z,14.00
2018-11-20T05:37:26.593Z,12.43
2018-11-20T05:40:14.498Z,10.63
2018-11-20T05:43:01.408Z,14.10
2018-11-20T05:45:48.424Z,9.50
2018-11-20T05:48:35.479Z,10.13
2018-11-20T05:51:16.431Z,14.27
2018-11-20T05:54:13.529Z,10.87
2018-11-20T05:57:04.558Z,12.33
2018-11-20T05:59:44.005Z,13.43
2018-11-20T06:02:30.888Z,9.17
2018-11-20T06:05:31.101Z,12.90
2018-11-20T06:08:17.739Z,11.60
2018-11-20T06:11:05.803Z,12.57
2018-11-20T06:14:05.870Z,11.90
2018-11-20T06:17:12.099Z,9.37
2018-11-20T06:20:06.015Z,12.50
2018-11-20T06:23:03.537Z,13.90
2018-11-20T06:25:49.916Z,12.70
2018-11-20T06:28:31.859Z,10.23
2018-11-20T06:31:12.373Z,13.93
2018-11-20T06:34:08.119Z,10.17
2018-11-20T06:36:58.863Z,13.98
2018-11-20T06:39:45.319Z,11.87
2018-11-20T06:42:45.343Z,14.27
2018-11-20T06:45:39.846Z,14.33
2018-11-20T06:48:28.492Z,13.13
2018-11-20T06:51:13.312Z,13.60
2018-11-20T06:53:58.419Z,13.30
2018-11-20T06:56:41.717Z,11.57
2018-11-20T06:59:30.701Z,14.07
2018-11-20T07:02:27.537Z,15.10
2018-11-20T07:05:07.023Z,13.93
2018-11-20T07:07:54.219Z,13.20
2018-11-20T07:10:41.180Z,15.23
2018-11-20T07:13:34.498Z,16.27
2018-11-20T07:16:36.686Z,10.10
2018-11-20T07:19:23.706Z,15.63
2018-11-20T07:22:05.449Z,16.57
2018-11-20T07:25:03.655Z,15.73
2018-11-20T07:27:57.681Z,13.58
2018-11-20T07:30:44.482Z,13.67
2018-11-20T07:33:31.005Z,15.87
2018-11-20T07:36:24.443Z,15.80
2018-11-20T07:39:12.307Z,13.67
2018-11-20T07:41:56.267Z,17.03
2018-11-20T07:44:54.428Z,16.30
2018-11-20T07:47:42.457Z,14.90
2018-11-20T07:50:36.749Z,16.33
2018-11-20T07:53:36.425Z,13.03
2018-11-20T07:56:23.512Z,12.03
2018-11-20T07:59:10.063Z,15.08
2018-11-20T08:02:02.810Z,14.37
2018-11-20T08:04:53.692Z,14.90
2018-11-20T08:07:49.517Z,14.60
2018-11-20T08:10:36.199Z,14.50
2018-11-20T08:13:30.487Z,15.10
2018-11-20T08:16:05.441Z,13.67
2018-11-20T08:19:05.523Z,15.00
2018-11-20T08:21:52.046Z,15.20
2018-11-20T08:24:38.995Z,14.63
2018-11-20T08:27:27.699Z,14.55
2018-11-20T08:30:15.525Z,13.37
2018-11-20T08:33:15.957Z,15.50
2018-11-20T08:36:03.919Z,16.00
2018-11-20T08:39:03.833Z,16.07
2018-11-20T08:41:53.431Z,14.03
2018-11-20T08:44:51.902Z,16.03
2018-11-20T08:47:49.991Z,15.53
2018-11-20T08:50:44.017Z,16.10
2018-11-20T08:53:35.395Z,11.60
2018-11-20T08:56:35.413Z,17.07
2018-11-20T08:59:13.439Z,14.17
2018-11-20T09:01:59.665Z,15.43
2018-11-20T09:04:50.379Z,14.60
2018-11-20T09:07:32.350Z,16.12
2018-11-20T09:10:21.522Z,16.83
2018-11-20T09:13:15.704Z,15.30
2018-11-20T09:15:55.875Z,14.60
2018-11-20T09:18:50.199Z,15.57
2018-11-20T09:21:38.020Z,17.10
2018-11-20T09:24:24.601Z,16.47
2018-11-20T09:27:21.389Z,12.87
2018-11-20T09:30:21.833Z,14.97
2018-11-20T09:33:02.788Z,13.00
2018-11-20T09:35:49.608Z,15.23
2018-11-20T09:38:31.429Z,14.55
2018-11-20T09:41:37.878Z,15.20
2018-11-20T09:44:51.794Z,15.77
2018-11-20T09:47:46.658Z,15.07
2018-11-20T09:50:44.133Z,14.67
2018-11-20T09:53:27.759Z,14.50
2018-11-20T09:56:28.034Z,15.70
2018-11-20T09:59:14.678Z,15.80
2018-11-20T10:01:58.630Z,13.48
2018-11-20T10:04:55.743Z,13.83
2018-11-20T10:07:48.283Z,14.10
2018-11-20T10:10:48.340Z,15.57
2018-11-20T10:13:48.738Z,13.83
2018-11-20T10:16:36.347Z,15.30
2018-11-20T10:19:27.564Z,11.08
2018-11-20T10:22:14.379Z,15.15
2018-11-20T10:25:14.544Z,13.67
2018-11-20T10:28:11.607Z,14.27
2018-11-20T10:31:18.019Z,16.80
2018-11-20T10:34:16.885Z,14.83
2018-11-20T10:37:07.486Z,13.40
2018-11-20T10:39:54.516Z,16.03
2018-11-20T10:42:37.942Z,15.57
2018-11-20T10:45:25.223Z,16.03
2018-11-20T10:48:31.150Z,15.00
2018-11-20T10:51:18.128Z,16.00
2018-11-20T10:54:04.820Z,16.17
2018-11-20T10:56:59.160Z,16.37
2018-11-20T10:59:47.309Z,14.83
2018-11-20T11:02:34.149Z,14.40
2018-11-20T11:05:21.008Z,14.20
2018-11-20T11:08:15.192Z,15.32
2018-11-20T11:10:50.549Z,15.37
2018-11-20T11:13:37.111Z,14.33
2018-11-20T11:16:23.822Z,16.40
2018-11-20T11:19:19.354Z,14.57
2018-11-20T11:22:06.670Z,16.00
2018-11-20T11:24:53.690Z,14.67
2018-11-20T11:27:41.741Z,15.83
2018-11-20T11:30:28.392Z,16.45
2018-11-20T11:33:35.598Z,15.63
2018-11-20T11:36:15.784Z,14.73
2018-11-20T11:38:50.800Z,17.23
2018-11-20T11:41:44.534Z,16.37
2018-11-20T11:44:32.781Z,16.05
2018-11-20T11:47:19.598Z,13.20
2018-11-20T11:50:25.885Z,14.83
2018-11-20T11:53:12.737Z,15.13
2018-11-20T11:56:12.991Z,17.03
2018-11-20T11:58:52.305Z,13.27
2018-11-20T12:04:29.211Z,14.67
2018-11-20T12:07:32.454Z,16.03
2018-11-20T12:10:36.387Z,13.43
2018-11-20T12:13:24.216Z,13.13
2018-11-20T12:16:18.381Z,16.05
2018-11-20T12:19:12.329Z,16.73
2018-11-20T12:21:58.838Z,18.97
2018-11-20T12:24:47.349Z,12.80
2018-11-20T12:27:41.042Z,16.70
2018-11-20T12:30:18.228Z,16.87
2018-11-20T12:33:09.042Z,16.13
2018-11-20T12:35:56.596Z,13.50
2018-11-20T12:38:50.223Z,17.00
2018-11-20T12:41:30.157Z,17.77
2018-11-20T12:44:20.151Z,15.73
2018-11-20T12:47:09.349Z,15.37
2018-11-20T12:49:54.782Z,16.80
2018-11-20T12:52:41.261Z,14.23
2018-11-20T12:55:28.378Z,17.30
2018-11-20T12:58:25.600Z,14.87
2018-11-20T13:01:15.016Z,15.50
2018-11-20T13:04:02.402Z,17.00
2018-11-20T13:06:46.911Z,17.12
2018-11-20T13:09:43.211Z,18.07
2018-11-20T13:12:29.592Z,13.83
2018-11-20T13:15:23.507Z,16.33
2018-11-20T13:18:11.020Z,18.50
2018-11-20T13:20:57.043Z,14.40
2018-11-20T13:23:49.910Z,16.37
2018-11-20T13:26:37.842Z,18.53
2018-11-20T13:29:24.447Z,15.17
2018-11-20T13:32:05.081Z,18.75
2018-11-20T13:34:53.111Z,17.90
2018-11-20T13:37:35.616Z,17.57
2018-11-20T13:40:19.732Z,17.27
2018-11-20T13:42:59.637Z,17.57
2018-11-20T13:45:56.539Z,17.73
2018-11-20T13:48:53.248Z,15.87
2018-11-20T13:51:56.417Z,13.07
2018-11-20T13:54:47.043Z,13.57
2018-11-20T13:57:47.291Z,17.32
2018-11-20T14:00:29.299Z,17.23
2018-11-20T14:03:29.246Z,15.10
2018-11-20T14:06:17.551Z,14.43
2018-11-20T14:09:09.619Z,12.20
2018-11-20T14:11:47.386Z,17.03
2018-11-20T14:14:25.015Z,12.03
2018-11-20T14:17:25.975Z,13.87
2018-11-20T14:20:06.934Z,14.77
2018-11-20T14:23:03.265Z,12.53
2018-11-20T14:25:50.351Z,13.47
2018-11-20T14:28:28.867Z,14.00
2018-11-20T14:31:11.677Z,11.13
2018-11-20T14:34:02.466Z,11.28
2018-11-20T14:37:09.078Z,13.23
2018-11-20T14:39:57.793Z,12.30
2018-11-20T14:42:50.491Z,12.33
2018-11-20T14:45:41.415Z,11.97
2018-11-20T14:48:22.368Z,11.47
2018-11-20T14:51:17.644Z,12.77
2018-11-20T14:54:00.432Z,9.67
2018-11-20T14:56:47.572Z,11.77
2018-11-20T14:59:34.766Z,10.60
2018-11-20T15:02:36.724Z,11.60
2018-11-20T15:05:31.619Z,9.50
2018-11-20T15:08:28.473Z,10.97
2018-11-20T15:11:25.886Z,11.13
2018-11-20T15:14:12.573Z,7.80
2018-11-20T15:16:49.938Z,11.93
2018-11-20T15:19:36.676Z,13.43
2018-11-20T15:22:27.769Z,11.00
2018-11-20T15:25:18.398Z,12.00
2018-11-20T15:28:09.126Z,11.57
2018-11-20T15:30:59.747Z,12.07
2018-11-20T15:33:41.197Z,11.78
2018-11-20T15:36:30.941Z,13.37
2018-11-20T15:39:12.675Z,12.87
2018-11-20T15:41:53.163Z,11.90
2018-11-20T15:44:41.174Z,13.93
2018-11-20T15:47:32.568Z,15.50
2018-11-20T15:50:38.748Z,15.20
2018-11-20T15:53:25.605Z,14.00
2018-11-20T15:56:08.918Z,10.90
2018-11-20T15:58:55.718Z,13.03
2018-11-20T16:01:42.385Z,14.90
2018-11-20T16:04:20.589Z,12.93
2018-11-20T16:07:01.801Z,14.60
2018-11-20T16:10:03.733Z,15.80
2018-11-20T16:12:50.479Z,9.53
2018-11-20T16:15:37.145Z,14.17
2018-11-20T16:18:21.586Z,14.77
2018-11-20T16:21:12.281Z,14.83
2018-11-20T16:24:15.591Z,14.63
2018-11-20T16:27:02.149Z,15.80
2018-11-20T16:29:59.239Z,14.30
2018-11-20T16:32:40.362Z,14.43
2018-11-20T16:35:29.071Z,14.30
2018-11-20T16:38:16.993Z,14.33
2018-11-20T16:41:02.746Z,14.93
2018-11-20T16:43:52.002Z,9.97
2018-11-20T16:46:43.375Z,14.73
2018-11-20T16:49:30.532Z,14.40
2018-11-20T16:52:18.562Z,15.37
2018-11-20T16:55:18.911Z,14.13
2018-11-20T16:58:05.757Z,14.50
2018-11-20T17:01:01.780Z,14.17
2018-11-20T17:03:49.851Z,13.37
2018-11-20T17:06:44.051Z,13.63
2018-11-20T17:09:28.674Z,12.97
2018-11-20T17:12:08.839Z,16.67
2018-11-20T17:15:09.090Z,13.17
2018-11-20T17:17:56.023Z,14.20
2018-11-20T17:20:34.482Z,13.70
2018-11-20T17:23:34.641Z,12.07
2018-11-20T17:26:16.151Z,13.60
2018-11-20T17:29:07.069Z,14.00
2018-11-20T17:31:55.239Z,13.37
2018-11-20T17:34:42.250Z,13.60
2018-11-20T17:37:23.730Z,12.73
2018-11-20T17:40:11.945Z,13.43
2018-11-20T17:43:05.147Z,12.83
2018-11-20T17:45:53.248Z,9.33
2018-11-20T17:48:39.808Z,12.20
2018-11-20T17:51:37.268Z,11.80
2018-11-20T17:54:23.315Z,12.43
2018-11-20T17:57:26.911Z,10.93
2018-11-20T18:00:24.315Z,12.07
2018-11-20T18:03:12.450Z,12.03
2018-11-20T18:06:01.064Z,12.47
2018-11-20T18:08:47.694Z,12.57
2018-11-20T18:11:31.272Z,13.07
2018-11-20T18:14:11.303Z,10.80
2018-11-20T18:17:00.348Z,11.93
2018-11-20T18:19:54.720Z,13.23
2018-11-20T18:22:57.869Z,12.50
2018-11-20T18:26:00.823Z,13.70
2018-11-20T18:28:47.787Z,13.10
2018-11-20T18:31:43.795Z,12.50
2018-11-20T18:34:30.547Z,11.77
2018-11-20T18:37:12.747Z,9.37
2018-11-20T18:40:00.847Z,11.53
2018-11-20T18:42:50.671Z,10.97
2018-11-20T18:45:47.691Z,12.43
2018-11-20T18:48:32.104Z,12.83
2018-11-20T18:51:18.762Z,12.37
2018-11-20T18:54:19.184Z,11.73
2018-11-20T18:57:07.139Z,12.47
2018-11-20T18:59:49.005Z,10.98
2018-11-20T19:02:43.238Z,12.37
2018-11-20T19:05:31.480Z,10.93
2018-11-20T19:08:22.808Z,10.13
2018-11-20T19:11:19.391Z,12.23
2018-11-20T19:14:13.285Z,12.60
2018-11-20T19:16:58.946Z,12.33
2018-11-20T19:19:56.540Z,13.10
2018-11-20T19:22:43.129Z,13.90
2018-11-20T19:25:26.222Z,12.97
2018-11-20T19:28:13.227Z,12.90
2018-11-20T19:31:14.186Z,13.20
2018-11-20T19:33:56.971Z,13.43
2018-11-20T19:36:46.971Z,13.80
2018-11-20T19:39:53.470Z,8.83
2018-11-20T19:42:40.397Z,12.82
2018-11-20T19:45:27.243Z,14.53
2018-11-20T19:48:13.840Z,14.70
2018-11-20T19:51:01.416Z,14.27
2018-11-20T19:53:49.510Z,13.60
2018-11-20T19:56:36.285Z,14.07
2018-11-20T19:59:27.474Z,14.93
2018-11-20T20:02:14.270Z,14.73
2018-11-20T20:05:01.418Z,15.03
2018-11-20T20:07:54.764Z,14.87
2018-11-20T20:10:36.367Z,13.08
2018-11-20T20:13:27.675Z,12.47
2018-11-20T20:16:14.778Z,14.73
2018-11-20T20:19:01.459Z,13.40
2018-11-20T20:21:48.484Z,15.17
2018-11-20T20:24:35.710Z,14.20
2018-11-20T20:27:24.414Z,16.87
2018-11-20T20:30:24.617Z,14.40
2018-11-20T20:33:21.796Z,13.90
2018-11-20T20:36:01.781Z,16.10
2018-11-20T20:38:48.718Z,16.53
2018-11-20T20:41:39.915Z,16.33
2018-11-20T20:44:26.636Z,16.90
2018-11-20T20:47:22.173Z,16.13
2018-11-20T20:50:28.623Z,16.40
2018-11-20T20:53:16.658Z,15.08
2018-11-20T20:56:04.389Z,15.30
2018-11-20T20:58:58.020Z,16.20
2018-11-20T21:01:49.529Z,16.50
2018-11-20T21:04:37.238Z,15.80
2018-11-20T21:07:18.708Z,19.00
2018-11-20T21:10:00.058Z,17.40
2018-11-20T21:12:40.465Z,16.07
2018-11-20T21:15:40.285Z,19.37
2018-11-20T21:18:34.383Z,17.73
2018-11-20T21:21:20.476Z,18.33
2018-11-20T21:24:07.396Z,19.87
2018-11-20T21:27:13.609Z,18.00
2018-11-20T21:30:00.363Z,17.43
2018-11-20T21:32:55.454Z,17.77
2018-11-20T21:35:46.783Z,18.57
2018-11-20T21:38:33.811Z,18.83
2018-11-20T21:41:20.667Z,19.07
2018-11-20T21:43:58.638Z,17.77
2018-11-20T21:46:49.354Z,19.53
2018-11-20T21:49:46.585Z,17.27
2018-11-20T21:52:40.574Z,16.97
2018-11-20T21:55:34.688Z,20.97
2018-11-20T21:58:21.340Z,18.15
2018-11-20T22:01:10.698Z,19.20
2018-11-20T22:03:57.656Z,17.83
2018-11-20T22:06:50.366Z,18.17
2018-11-20T22:09:38.531Z,18.80
2018-11-20T22:12:26.455Z,19.40
2018-11-20T22:15:13.580Z,17.70
2018-11-20T22:18:09.438Z,20.47
2018-11-20T22:20:54.486Z,21.07
2018-11-20T22:23:30.456Z,19.73
2018-11-20T22:26:21.275Z,21.40
2018-11-20T22:29:11.884Z,21.50
2018-11-20T22:32:09.850Z,17.97
2018-11-20T22:34:57.097Z,20.00
2018-11-20T22:37:53.983Z,18.77
2018-11-20T22:40:30.929Z,17.20
2018-11-20T22:43:23.509Z,19.13
2018-11-20T22:46:23.778Z,19.23
2018-11-20T22:49:08.606Z,20.05
2018-11-20T22:51:56.688Z,17.53
2018-11-20T22:54:42.767Z,17.80
2018-11-20T22:57:49.724Z,18.20
2018-11-20T23:00:37.895Z,18.87
2018-11-20T23:03:25.883Z,19.63
2018-11-20T23:06:06.068Z,18.35
2018-11-20T23:08:35.075Z,18.07
2018-11-20T23:11:03.966Z,19.10
2018-11-20T23:13:33.197Z,18.83
2018-11-20T23:16:02.387Z,17.92
2018-11-20T23:18:31.346Z,18.80
2018-11-20T23:21:00.184Z,19.42
2018-11-20T23:23:29.069Z,18.80
2018-11-20T23:25:57.976Z,18.30
2018-11-20T23:28:26.961Z,15.57
2018-11-20T23:30:55.819Z,15.10
2018-11-20T23:33:25.100Z,17.10
2018-11-20T23:35:54.210Z,17.43
2018-11-20T23:38:23.169Z,19.30
2018-11-20T23:40:52.154Z,19.00
2018-11-20T23:43:20.961Z,16.17
2018-11-20T23:45:49.883Z,15.93
2018-11-20T23:48:18.759Z,18.87
2018-11-20T23:50:47.578Z,17.73
2018-11-20T23:53:16.586Z,18.27
2018-11-20T23:55:45.755Z,13.23
2018-11-20T23:58:14.882Z,18.60
